sensor_id;sensor_type;location;lat;lon;timestamp;P1;durP1;ratioP1;P2;durP2;ratioP2
18364;SDS011;9309;52.126;11.616;2023-02-01T12:56:51;9.13;;;3.70;;
18364;SDS011;9309;52.126;11.616;2023-02-01T12:59:24;7.57;;;3.20;;
18364;SDS011;9309;52.126;11.616;2023-02-01T13:01:54;14.03;;;4.13;;
18364;SDS011;9309;52.126;11.616;2023-02-01T13:04:28;17.87;;;3.47;;
18364;SDS011;9309;52.126;11.616;2023-02-01T13:07:02;6.63;;;3.20;;
18364;SDS011;9309;52.126;11.616;2023-02-01T13:09:34;9.73;;;3.37;;
18364;SDS011;9309;52.126;11.616;2023-02-01T13:12:07;11.77;;;2.90;;
18364;SDS011;9309;52.126;11.616;2023-02-01T13:14:40;12.30;;;3.30;;
18364;SDS011;9309;52.126;11.616;2023-02-01T13:17:12;11.50;;;3.60;;
18364;SDS011;9309;52.126;11.616;2023-02-01T13:19:43;19.17;;;4.33;;
18364;SDS011;9309;52.126;11.616;2023-02-01T13:22:17;12.47;;;3.07;;
18364;SDS011;9309;52.126;11.616;2023-02-01T13:24:47;9.20;;;3.10;;
18364;SDS011;9309;52.126;11.616;2023-02-01T13:27:17;6.50;;;2.80;;
18364;SDS011;9309;52.126;11.616;2023-02-01T13:29:46;7.97;;;3.37;;
18364;SDS011;9309;52.126;11.616;2023-02-01T13:32:23;13.27;;;3.53;;
18364;SDS011;9309;52.126;11.616;2023-02-01T13:35:25;12.67;;;3.57;;
18364;SDS011;9309;52.126;11.616;2023-02-01T13:38:11;7.57;;;3.33;;
18364;SDS011;9309;52.126;11.616;2023-02-01T13:40:52;20.33;;;4.60;;
18364;SDS011;9309;52.126;11.616;2023-02-01T13:43:33;11.87;;;3.63;;
18364;SDS011;9309;52.126;11.616;2023-02-01T13:46:04;5.40;;;3.47;;
18364;SDS011;9309;52.126;11.616;2023-02-01T13:48:33;12.77;;;4.10;;
18364;SDS011;9309;52.126;11.616;2023-02-01T13:51:05;12.33;;;4.43;;
18364;SDS011;9309;52.126;11.616;2023-02-01T13:53:35;17.93;;;5.10;;
18364;SDS011;9309;52.126;11.616;2023-02-01T13:56:06;19.00;;;5.20;;
18364;SDS011;9309;52.126;11.616;2023-02-01T13:58:37;16.57;;;4.03;;
18364;SDS011;9309;52.126;11.616;2023-02-01T14:07:15;10.30;;;4.17;;
18364;SDS011;9309;52.126;11.616;2023-02-01T14:09:49;8.53;;;4.40;;
18364;SDS011;9309;52.126;11.616;2023-02-01T14:15:23;10.37;;;4.40;;
18364;SDS011;9309;52.126;11.616;2023-02-01T14:17:51;9.07;;;4.90;;
18364;SDS011;9309;52.126;11.616;2023-02-01T14:23:26;14.47;;;5.73;;
18364;SDS011;9309;52.126;11.616;2023-02-01T14:29:01;4.50;;;4.17;;
18364;SDS011;9309;52.126;11.616;2023-02-01T14:31:44;11.10;;;4.60;;
18364;SDS011;9309;52.126;11.616;2023-02-01T14:34:21;11.73;;;5.63;;
18364;SDS011;9309;52.126;11.616;2023-02-01T14:36:54;11.07;;;5.77;;
18364;SDS011;9309;52.126;11.616;2023-02-01T14:39:31;7.77;;;5.20;;
18364;SDS011;9309;52.126;11.616;2023-02-01T14:42:16;6.13;;;4.47;;
18364;SDS011;9309;52.126;11.616;2023-02-01T14:44:48;6.00;;;3.87;;
18364;SDS011;9309;52.126;11.616;2023-02-01T14:53:11;3.47;;;3.10;;
18364;SDS011;9309;52.126;11.616;2023-02-01T14:55:46;6.90;;;3.10;;
18364;SDS011;9309;52.126;11.616;2023-02-01T14:58:18;9.10;;;2.53;;
18364;SDS011;9309;52.126;11.616;2023-02-01T15:00:51;2.70;;;2.60;;
18364;SDS011;9309;52.126;11.616;2023-02-01T15:03:33;5.67;;;3.03;;
18364;SDS011;9309;52.126;11.616;2023-02-01T15:06:12;5.20;;;3.20;;
18364;SDS011;9309;52.126;11.616;2023-02-01T15:09:02;2.53;;;2.27;;
18364;SDS011;9309;52.126;11.616;2023-02-01T15:11:44;4.57;;;2.37;;
18364;SDS011;9309;52.126;11.616;2023-02-01T15:14:21;3.27;;;2.60;;
18364;SDS011;9309;52.126;11.616;2023-02-01T15:16:48;2.60;;;2.40;;
18364;SDS011;9309;52.126;11.616;2023-02-01T15:19:19;2.80;;;2.60;;
18364;SDS011;9309;52.126;11.616;2023-02-01T15:21:48;3.50;;;2.60;;
18364;SDS011;9309;52.126;11.616;2023-02-01T15:24:20;2.93;;;2.30;;
18364;SDS011;9309;52.126;11.616;2023-02-01T15:26:48;2.40;;;2.40;;
18364;SDS011;9309;52.126;11.616;2023-02-01T15:29:16;2.80;;;2.70;;
18364;SDS011;9309;52.126;11.616;2023-02-01T15:31:46;5.00;;;3.10;;
18364;SDS011;9309;52.126;11.616;2023-02-01T15:34:14;2.70;;;2.50;;
18364;SDS011;9309;52.126;11.616;2023-02-01T15:36:42;2.73;;;2.63;;
18364;SDS011;9309;52.126;11.616;2023-02-01T15:41:56;2.77;;;2.57;;
18364;SDS011;9309;52.126;11.616;2023-02-01T15:44:31;2.60;;;2.60;;
18364;SDS011;9309;52.126;11.616;2023-02-01T15:47:04;5.43;;;2.50;;
18364;SDS011;9309;52.126;11.616;2023-02-01T15:49:36;2.60;;;2.50;;
18364;SDS011;9309;52.126;11.616;2023-02-01T15:52:10;2.67;;;2.47;;
18364;SDS011;9309;52.126;11.616;2023-02-01T15:54:46;3.70;;;3.10;;
18364;SDS011;9309;52.126;11.616;2023-02-01T15:57:18;3.27;;;2.50;;
18364;SDS011;9309;52.126;11.616;2023-02-01T15:59:48;2.80;;;2.27;;
18364;SDS011;9309;52.126;11.616;2023-02-01T16:02:27;2.30;;;2.20;;
18364;SDS011;9309;52.126;11.616;2023-02-01T16:04:59;3.40;;;2.47;;
18364;SDS011;9309;52.126;11.616;2023-02-01T16:07:27;2.70;;;2.50;;
18364;SDS011;9309;52.126;11.616;2023-02-01T16:09:56;3.10;;;2.63;;
18364;SDS011;9309;52.126;11.616;2023-02-01T16:12:28;2.80;;;2.60;;
18364;SDS011;9309;52.126;11.616;2023-02-01T16:14:56;3.90;;;2.87;;
18364;SDS011;9309;52.126;11.616;2023-02-01T16:17:23;7.53;;;3.20;;
18364;SDS011;9309;52.126;11.616;2023-02-01T16:19:51;7.60;;;3.20;;
18364;SDS011;9309;52.126;11.616;2023-02-01T16:22:18;5.93;;;2.70;;
18364;SDS011;9309;52.126;11.616;2023-02-01T16:24:45;3.87;;;2.90;;
18364;SDS011;9309;52.126;11.616;2023-02-01T16:27:11;6.20;;;3.53;;
18364;SDS011;9309;52.126;11.616;2023-02-01T16:29:38;4.27;;;3.07;;
18364;SDS011;9309;52.126;11.616;2023-02-01T16:32:05;4.53;;;3.60;;
18364;SDS011;9309;52.126;11.616;2023-02-01T16:34:32;9.23;;;3.50;;
18364;SDS011;9309;52.126;11.616;2023-02-01T16:37:02;5.13;;;3.67;;
18364;SDS011;9309;52.126;11.616;2023-02-01T16:39:29;6.60;;;3.30;;
18364;SDS011;9309;52.126;11.616;2023-02-01T16:41:58;9.03;;;3.87;;
18364;SDS011;9309;52.126;11.616;2023-02-01T16:44:25;9.87;;;4.10;;
18364;SDS011;9309;52.126;11.616;2023-02-01T16:46:51;8.43;;;3.67;;
18364;SDS011;9309;52.126;11.616;2023-02-01T16:49:19;7.90;;;3.97;;
18364;SDS011;9309;52.126;11.616;2023-02-01T16:51:47;11.47;;;4.30;;
18364;SDS011;9309;52.126;11.616;2023-02-01T16:54:16;14.43;;;4.13;;
18364;SDS011;9309;52.126;11.616;2023-02-01T16:56:42;17.70;;;5.50;;
18364;SDS011;9309;52.126;11.616;2023-02-01T16:59:11;7.43;;;4.03;;
18364;SDS011;9309;52.126;11.616;2023-02-01T17:01:39;7.10;;;3.67;;
18364;SDS011;9309;52.126;11.616;2023-02-01T17:04:07;6.77;;;3.70;;
18364;SDS011;9309;52.126;11.616;2023-02-01T17:06:34;11.80;;;4.00;;
18364;SDS011;9309;52.126;11.616;2023-02-01T17:09:03;10.03;;;4.43;;
18364;SDS011;9309;52.126;11.616;2023-02-01T17:11:32;11.90;;;5.47;;
18364;SDS011;9309;52.126;11.616;2023-02-01T17:14:01;8.57;;;4.87;;
18364;SDS011;9309;52.126;11.616;2023-02-01T17:16:35;8.47;;;3.30;;
18364;SDS011;9309;52.126;11.616;2023-02-01T17:19:03;11.43;;;4.40;;
18364;SDS011;9309;52.126;11.616;2023-02-01T17:21:34;11.33;;;3.37;;
18364;SDS011;9309;52.126;11.616;2023-02-01T17:24:04;5.23;;;3.17;;
18364;SDS011;9309;52.126;11.616;2023-02-01T17:26:32;11.23;;;3.60;;
18364;SDS011;9309;52.126;11.616;2023-02-01T17:28:59;12.93;;;4.20;;
18364;SDS011;9309;52.126;11.616;2023-02-01T17:31:26;11.50;;;3.37;;
18364;SDS011;9309;52.126;11.616;2023-02-01T17:33:54;6.57;;;3.50;;
18364;SDS011;9309;52.126;11.616;2023-02-01T17:36:20;13.40;;;3.57;;
18364;SDS011;9309;52.126;11.616;2023-02-01T17:38:47;11.07;;;4.60;;
18364;SDS011;9309;52.126;11.616;2023-02-01T17:41:14;11.80;;;4.00;;
18364;SDS011;9309;52.126;11.616;2023-02-01T17:43:42;7.03;;;4.07;;
18364;SDS011;9309;52.126;11.616;2023-02-01T17:46:12;10.13;;;3.47;;
18364;SDS011;9309;52.126;11.616;2023-02-01T17:48:40;15.83;;;4.10;;
18364;SDS011;9309;52.126;11.616;2023-02-01T17:51:15;7.73;;;3.87;;
18364;SDS011;9309;52.126;11.616;2023-02-01T17:53:43;5.33;;;3.67;;
18364;SDS011;9309;52.126;11.616;2023-02-01T17:56:12;11.37;;;4.73;;
18364;SDS011;9309;52.126;11.616;2023-02-01T17:58:41;13.60;;;3.73;;
18364;SDS011;9309;52.126;11.616;2023-02-01T18:01:12;15.57;;;3.70;;
18364;SDS011;9309;52.126;11.616;2023-02-01T18:03:40;7.40;;;3.73;;
18364;SDS011;9309;52.126;11.616;2023-02-01T18:06:10;8.63;;;3.60;;
18364;SDS011;9309;52.126;11.616;2023-02-01T18:08:39;8.23;;;4.07;;
18364;SDS011;9309;52.126;11.616;2023-02-01T18:11:09;8.57;;;3.73;;
18364;SDS011;9309;52.126;11.616;2023-02-01T18:13:38;12.50;;;4.10;;
18364;SDS011;9309;52.126;11.616;2023-02-01T18:16:07;6.33;;;3.73;;
18364;SDS011;9309;52.126;11.616;2023-02-01T18:18:43;3.87;;;3.00;;
18364;SDS011;9309;52.126;11.616;2023-02-01T18:21:10;3.80;;;3.47;;
18364;SDS011;9309;52.126;11.616;2023-02-01T18:23:37;6.50;;;3.53;;
18364;SDS011;9309;52.126;11.616;2023-02-01T18:26:04;3.60;;;3.40;;
18364;SDS011;9309;52.126;11.616;2023-02-01T18:28:30;6.23;;;2.97;;
18364;SDS011;9309;52.126;11.616;2023-02-01T18:30:57;5.60;;;3.00;;
18364;SDS011;9309;52.126;11.616;2023-02-01T18:33:28;5.33;;;3.27;;
18364;SDS011;9309;52.126;11.616;2023-02-01T18:35:54;5.30;;;2.83;;
18364;SDS011;9309;52.126;11.616;2023-02-01T18:38:21;3.93;;;2.50;;
18364;SDS011;9309;52.126;11.616;2023-02-01T18:40:48;5.57;;;3.20;;
18364;SDS011;9309;52.126;11.616;2023-02-01T18:43:17;3.50;;;3.20;;
18364;SDS011;9309;52.126;11.616;2023-02-01T18:45:44;3.90;;;2.80;;
18364;SDS011;9309;52.126;11.616;2023-02-01T18:48:12;4.70;;;2.50;;
18364;SDS011;9309;52.126;11.616;2023-02-01T18:50:42;7.83;;;3.80;;
18364;SDS011;9309;52.126;11.616;2023-02-01T18:53:10;3.33;;;3.03;;
18364;SDS011;9309;52.126;11.616;2023-02-01T18:55:39;2.97;;;2.77;;
18364;SDS011;9309;52.126;11.616;2023-02-01T18:58:06;4.47;;;3.10;;
18364;SDS011;9309;52.126;11.616;2023-02-01T19:00:34;3.33;;;3.10;;
18364;SDS011;9309;52.126;11.616;2023-02-01T19:03:01;6.20;;;3.40;;
18364;SDS011;9309;52.126;11.616;2023-02-01T19:05:29;10.33;;;3.53;;
18364;SDS011;9309;52.126;11.616;2023-02-01T19:07:57;14.70;;;3.67;;
18364;SDS011;9309;52.126;11.616;2023-02-01T19:10:24;6.00;;;3.80;;
18364;SDS011;9309;52.126;11.616;2023-02-01T19:12:52;8.43;;;3.93;;
18364;SDS011;9309;52.126;11.616;2023-02-01T19:15:21;6.30;;;4.23;;
18364;SDS011;9309;52.126;11.616;2023-02-01T19:17:50;7.90;;;4.97;;
18364;SDS011;9309;52.126;11.616;2023-02-01T19:20:19;10.30;;;4.30;;
18364;SDS011;9309;52.126;11.616;2023-02-01T19:22:48;11.10;;;5.20;;
18364;SDS011;9309;52.126;11.616;2023-02-01T19:25:17;9.70;;;4.30;;
18364;SDS011;9309;52.126;11.616;2023-02-01T19:27:45;12.47;;;4.13;;
18364;SDS011;9309;52.126;11.616;2023-02-01T19:30:12;12.40;;;4.77;;
18364;SDS011;9309;52.126;11.616;2023-02-01T19:32:39;8.27;;;4.40;;
18364;SDS011;9309;52.126;11.616;2023-02-01T19:35:07;13.30;;;4.53;;
18364;SDS011;9309;52.126;11.616;2023-02-01T19:37:37;7.63;;;3.97;;
18364;SDS011;9309;52.126;11.616;2023-02-01T19:40:07;9.47;;;4.80;;
18364;SDS011;9309;52.126;11.616;2023-02-01T19:42:35;10.87;;;3.80;;
18364;SDS011;9309;52.126;11.616;2023-02-01T19:45:02;10.30;;;3.87;;
18364;SDS011;9309;52.126;11.616;2023-02-01T19:47:29;10.60;;;4.17;;
18364;SDS011;9309;52.126;11.616;2023-02-01T19:49:56;6.03;;;3.27;;
18364;SDS011;9309;52.126;11.616;2023-02-01T19:52:23;7.80;;;3.63;;
18364;SDS011;9309;52.126;11.616;2023-02-01T19:54:50;10.97;;;3.43;;
18364;SDS011;9309;52.126;11.616;2023-02-01T19:57:16;6.67;;;3.10;;
18364;SDS011;9309;52.126;11.616;2023-02-01T19:59:44;8.47;;;3.30;;
18364;SDS011;9309;52.126;11.616;2023-02-01T20:02:12;4.93;;;3.30;;
18364;SDS011;9309;52.126;11.616;2023-02-01T20:04:40;10.00;;;3.40;;
18364;SDS011;9309;52.126;11.616;2023-02-01T20:07:07;7.63;;;3.47;;
18364;SDS011;9309;52.126;11.616;2023-02-01T20:09:35;4.40;;;3.30;;
18364;SDS011;9309;52.126;11.616;2023-02-01T20:12:03;4.57;;;2.87;;
18364;SDS011;9309;52.126;11.616;2023-02-01T20:14:30;3.37;;;3.00;;
18364;SDS011;9309;52.126;11.616;2023-02-01T20:16:58;4.93;;;3.27;;
18364;SDS011;9309;52.126;11.616;2023-02-01T20:19:25;11.50;;;3.53;;
18364;SDS011;9309;52.126;11.616;2023-02-01T20:21:52;3.37;;;2.67;;
18364;SDS011;9309;52.126;11.616;2023-02-01T20:24:19;8.30;;;3.37;;
18364;SDS011;9309;52.126;11.616;2023-02-01T20:26:46;11.20;;;3.10;;
18364;SDS011;9309;52.126;11.616;2023-02-01T20:29:14;7.17;;;3.47;;
18364;SDS011;9309;52.126;11.616;2023-02-01T20:31:41;7.17;;;2.80;;
18364;SDS011;9309;52.126;11.616;2023-02-01T20:34:10;6.63;;;3.13;;
18364;SDS011;9309;52.126;11.616;2023-02-01T20:36:38;8.37;;;2.63;;
18364;SDS011;9309;52.126;11.616;2023-02-01T20:39:06;11.23;;;4.43;;
18364;SDS011;9309;52.126;11.616;2023-02-01T20:41:34;6.97;;;3.83;;
18364;SDS011;9309;52.126;11.616;2023-02-01T20:44:01;6.57;;;3.43;;
18364;SDS011;9309;52.126;11.616;2023-02-01T20:46:28;5.57;;;3.17;;
18364;SDS011;9309;52.126;11.616;2023-02-01T20:48:55;6.40;;;3.33;;
18364;SDS011;9309;52.126;11.616;2023-02-01T20:51:23;7.90;;;3.10;;
18364;SDS011;9309;52.126;11.616;2023-02-01T20:53:49;12.20;;;4.27;;
18364;SDS011;9309;52.126;11.616;2023-02-01T20:56:17;8.67;;;3.60;;
18364;SDS011;9309;52.126;11.616;2023-02-01T20:58:44;6.93;;;4.03;;
18364;SDS011;9309;52.126;11.616;2023-02-01T21:01:11;15.47;;;3.70;;
18364;SDS011;9309;52.126;11.616;2023-02-01T21:03:38;9.10;;;4.00;;
18364;SDS011;9309;52.126;11.616;2023-02-01T21:06:06;6.47;;;3.50;;
18364;SDS011;9309;52.126;11.616;2023-02-01T21:08:35;4.33;;;3.27;;
18364;SDS011;9309;52.126;11.616;2023-02-01T21:11:02;15.43;;;3.63;;
18364;SDS011;9309;52.126;11.616;2023-02-01T21:13:32;9.40;;;3.80;;
18364;SDS011;9309;52.126;11.616;2023-02-01T21:16:06;14.77;;;3.73;;
18364;SDS011;9309;52.126;11.616;2023-02-01T21:18:34;14.03;;;4.73;;
18364;SDS011;9309;52.126;11.616;2023-02-01T21:21:02;14.23;;;3.80;;
18364;SDS011;9309;52.126;11.616;2023-02-01T21:23:30;24.50;;;3.73;;
18364;SDS011;9309;52.126;11.616;2023-02-01T21:26:09;8.27;;;3.33;;
18364;SDS011;9309;52.126;11.616;2023-02-01T21:28:37;16.43;;;3.80;;
18364;SDS011;9309;52.126;11.616;2023-02-01T21:31:04;10.67;;;3.63;;
18364;SDS011;9309;52.126;11.616;2023-02-01T21:33:31;17.93;;;4.00;;
18364;SDS011;9309;52.126;11.616;2023-02-01T21:35:58;26.67;;;3.77;;
18364;SDS011;9309;52.126;11.616;2023-02-01T21:38:25;16.97;;;3.83;;
18364;SDS011;9309;52.126;11.616;2023-02-01T21:40:52;13.33;;;3.77;;
18364;SDS011;9309;52.126;11.616;2023-02-01T21:43:34;13.43;;;3.70;;
18364;SDS011;9309;52.126;11.616;2023-02-01T21:46:00;9.10;;;4.40;;
18364;SDS011;9309;52.126;11.616;2023-02-01T21:48:27;13.80;;;4.13;;
18364;SDS011;9309;52.126;11.616;2023-02-01T21:50:54;15.27;;;4.10;;
18364;SDS011;9309;52.126;11.616;2023-02-01T21:53:21;10.87;;;3.70;;
18364;SDS011;9309;52.126;11.616;2023-02-01T21:55:48;10.13;;;3.53;;
18364;SDS011;9309;52.126;11.616;2023-02-01T21:58:15;12.57;;;4.20;;
18364;SDS011;9309;52.126;11.616;2023-02-01T22:00:43;9.30;;;3.60;;
18364;SDS011;9309;52.126;11.616;2023-02-01T22:03:11;19.27;;;4.63;;
18364;SDS011;9309;52.126;11.616;2023-02-01T22:05:38;11.90;;;4.53;;
18364;SDS011;9309;52.126;11.616;2023-02-01T22:08:05;20.93;;;3.87;;
18364;SDS011;9309;52.126;11.616;2023-02-01T22:10:31;22.70;;;4.47;;
18364;SDS011;9309;52.126;11.616;2023-02-01T22:12:58;21.77;;;3.93;;
18364;SDS011;9309;52.126;11.616;2023-02-01T22:15:24;15.33;;;4.17;;
18364;SDS011;9309;52.126;11.616;2023-02-01T22:17:54;10.23;;;3.63;;
18364;SDS011;9309;52.126;11.616;2023-02-01T22:20:21;16.43;;;3.83;;
18364;SDS011;9309;52.126;11.616;2023-02-01T22:22:47;23.27;;;4.53;;
18364;SDS011;9309;52.126;11.616;2023-02-01T22:25:14;16.10;;;4.20;;
18364;SDS011;9309;52.126;11.616;2023-02-01T22:27:41;20.07;;;4.17;;
18364;SDS011;9309;52.126;11.616;2023-02-01T22:30:08;10.20;;;3.80;;
18364;SDS011;9309;52.126;11.616;2023-02-01T22:32:35;19.07;;;4.40;;
18364;SDS011;9309;52.126;11.616;2023-02-01T22:35:04;16.80;;;3.83;;
18364;SDS011;9309;52.126;11.616;2023-02-01T22:37:31;17.37;;;4.07;;
18364;SDS011;9309;52.126;11.616;2023-02-01T22:39:58;9.93;;;3.50;;
18364;SDS011;9309;52.126;11.616;2023-02-01T22:42:26;19.93;;;4.17;;
18364;SDS011;9309;52.126;11.616;2023-02-01T22:44:52;14.87;;;4.20;;
18364;SDS011;9309;52.126;11.616;2023-02-01T22:47:19;14.23;;;3.93;;
18364;SDS011;9309;52.126;11.616;2023-02-01T22:49:46;22.93;;;3.80;;
18364;SDS011;9309;52.126;11.616;2023-02-01T22:52:14;9.00;;;3.50;;
18364;SDS011;9309;52.126;11.616;2023-02-01T22:54:40;19.30;;;4.07;;
18364;SDS011;9309;52.126;11.616;2023-02-01T22:57:07;11.33;;;3.50;;
18364;SDS011;9309;52.126;11.616;2023-02-01T22:59:34;18.20;;;4.00;;
18364;SDS011;9309;52.126;11.616;2023-02-01T23:02:01;20.30;;;4.70;;
18364;SDS011;9309;52.126;11.616;2023-02-01T23:04:28;15.90;;;5.17;;
18364;SDS011;9309;52.126;11.616;2023-02-01T23:06:54;13.23;;;3.87;;
18364;SDS011;9309;52.126;11.616;2023-02-01T23:09:23;20.67;;;3.40;;
18364;SDS011;9309;52.126;11.616;2023-02-01T23:11:51;13.40;;;3.40;;
18364;SDS011;9309;52.126;11.616;2023-02-01T23:14:18;16.23;;;3.90;;
18364;SDS011;9309;52.126;11.616;2023-02-01T23:16:45;32.97;;;4.63;;
18364;SDS011;9309;52.126;11.616;2023-02-01T23:19:13;15.70;;;3.97;;
18364;SDS011;9309;52.126;11.616;2023-02-01T23:21:40;15.47;;;4.23;;
18364;SDS011;9309;52.126;11.616;2023-02-01T23:24:07;16.73;;;3.60;;
18364;SDS011;9309;52.126;11.616;2023-02-01T23:26:36;9.57;;;3.90;;
18364;SDS011;9309;52.126;11.616;2023-02-01T23:29:03;11.17;;;3.73;;
18364;SDS011;9309;52.126;11.616;2023-02-01T23:31:31;15.43;;;4.07;;
18364;SDS011;9309;52.126;11.616;2023-02-01T23:33:59;16.53;;;4.80;;
18364;SDS011;9309;52.126;11.616;2023-02-01T23:36:27;12.43;;;4.10;;
18364;SDS011;9309;52.126;11.616;2023-02-01T23:38:54;17.80;;;4.87;;
18364;SDS011;9309;52.126;11.616;2023-02-01T23:41:21;16.60;;;4.80;;
18364;SDS011;9309;52.126;11.616;2023-02-01T23:43:52;11.63;;;3.30;;
18364;SDS011;9309;52.126;11.616;2023-02-01T23:46:27;7.57;;;3.70;;
18364;SDS011;9309;52.126;11.616;2023-02-01T23:48:55;10.97;;;3.77;;
18364;SDS011;9309;52.126;11.616;2023-02-01T23:51:23;10.00;;;3.70;;
18364;SDS011;9309;52.126;11.616;2023-02-01T23:53:50;17.17;;;3.60;;
18364;SDS011;9309;52.126;11.616;2023-02-01T23:56:18;13.23;;;3.10;;
18364;SDS011;9309;52.126;11.616;2023-02-01T23:58:47;17.03;;;4.33;;
